Terminal Aerodrome Forecast
Issued by NWS Charleston, WV

Current Version | Previous Version | Graphics & Text | Print | Product List | Glossary On
Versions: 1 2 3 4 5 6 7 8 9 10 11 12 13 14 15 16 17 18 19 20 21 22 23 24 25 26 27
000
FTUS41 KRLX 280547 RRB
TAFEKN
TAF
KEKN 280547Z 2806/2906 00000KT 3SM BR SCT120
     FM280800 00000KT 1SM BR SCT001 BKN150
     FM280900 00000KT 1/2SM FG VV001
     FM281300 00000KT 4SM BR BKN150
     FM281500 00000KT P6SM BKN200
     FM281800 26004KT 5SM -TSRA BR BKN040CB
     FM290000 00000KT P6SM +TSRA OVC025CB=

USA.gov is the U.S. government's official web portal to all federal, state and local government web resources and services.